createdAt,value
2023-03-18T00:02:09.520Z,1.52
2023-03-18T00:04:36.206Z,1.58
2023-03-18T00:07:03.412Z,1.37
2023-03-18T00:09:30.207Z,1.33
2023-03-18T00:11:56.864Z,1.30
2023-03-18T00:14:24.248Z,1.41
2023-03-18T00:16:50.976Z,1.39
2023-03-18T00:19:17.709Z,1.37
2023-03-18T00:21:44.382Z,1.43
2023-03-18T00:24:11.119Z,1.41
2023-03-18T00:26:38.481Z,1.29
2023-03-18T00:29:05.214Z,1.05
2023-03-18T00:31:31.869Z,0.92
2023-03-18T00:33:58.503Z,1.01
2023-03-18T00:36:25.396Z,1.11
2023-03-18T00:38:54.030Z,1.22
2023-03-18T00:41:20.668Z,1.30
2023-03-18T00:43:49.191Z,1.25
2023-03-18T00:46:25.216Z,1.35
2023-03-18T00:48:54.059Z,1.24
2023-03-18T00:51:23.106Z,1.27
2023-03-18T00:53:52.415Z,1.52
2023-03-18T00:56:21.811Z,1.46
2023-03-18T00:58:49.222Z,1.61
2023-03-18T01:01:16.818Z,1.66
2023-03-18T01:03:44.479Z,1.56
2023-03-18T01:06:16.482Z,1.55
2023-03-18T01:08:43.698Z,1.46
2023-03-18T01:11:11.001Z,1.42
2023-03-18T01:13:38.160Z,1.49
2023-03-18T01:16:05.952Z,1.61
2023-03-18T01:18:32.660Z,1.28
2023-03-18T01:20:59.304Z,1.22
2023-03-18T01:23:26.467Z,1.36
2023-03-18T01:25:53.450Z,1.30
2023-03-18T01:28:21.591Z,1.30
2023-03-18T01:30:49.058Z,1.38
2023-03-18T01:33:16.004Z,1.43
2023-03-18T01:35:42.932Z,1.23
2023-03-18T01:38:09.588Z,1.51
2023-03-18T01:40:38.081Z,1.34
2023-03-18T01:43:10.882Z,1.25
2023-03-18T01:45:37.519Z,1.10
2023-03-18T01:48:04.652Z,0.97
2023-03-18T01:50:34.866Z,0.89
2023-03-18T01:53:09.342Z,1.27
2023-03-18T01:55:38.401Z,1.20
2023-03-18T01:58:10.521Z,1.25
2023-03-18T02:00:42.188Z,1.30
2023-03-18T02:03:08.938Z,1.16
2023-03-18T02:05:35.870Z,1.23
2023-03-18T02:08:02.837Z,1.18
2023-03-18T02:10:31.593Z,1.15
2023-03-18T02:13:03.529Z,1.02
2023-03-18T02:15:31.494Z,1.00
2023-03-18T02:18:07.464Z,0.97
2023-03-18T02:20:52.779Z,0.96
2023-03-18T02:23:27.305Z,0.88
2023-03-18T02:26:20.430Z,0.82
2023-03-18T02:28:50.606Z,1.04
2023-03-18T02:31:19.165Z,1.15
2023-03-18T02:33:46.865Z,0.89
2023-03-18T02:36:25.048Z,0.91
2023-03-18T02:38:51.826Z,0.99
2023-03-18T02:41:25.131Z,0.98
2023-03-18T02:43:52.696Z,0.70
2023-03-18T02:46:48.476Z,0.65
2023-03-18T02:49:18.548Z,0.69
2023-03-18T02:51:45.396Z,0.54
2023-03-18T02:54:15.369Z,0.60
2023-03-18T02:56:43.437Z,0.68
2023-03-18T02:59:11.661Z,0.64
2023-03-18T03:01:39.662Z,0.49
2023-03-18T03:04:07.464Z,0.49
2023-03-18T03:06:35.062Z,0.46
2023-03-18T03:09:03.144Z,0.39
2023-03-18T03:11:30.262Z,0.53
2023-03-18T03:13:56.946Z,0.51
2023-03-18T03:16:23.576Z,0.49
2023-03-18T03:18:50.917Z,0.58
2023-03-18T03:21:17.613Z,0.69
2023-03-18T03:23:46.649Z,0.65
2023-03-18T03:26:14.351Z,0.60
2023-03-18T03:28:40.973Z,0.62
2023-03-18T03:31:07.650Z,0.56
2023-03-18T03:33:34.309Z,0.55
2023-03-18T03:36:00.938Z,0.48
2023-03-18T03:38:27.731Z,0.36
2023-03-18T03:40:54.474Z,0.34
2023-03-18T03:43:21.445Z,0.39
2023-03-18T03:45:48.050Z,0.40
2023-03-18T03:48:16.000Z,0.24
2023-03-18T03:50:42.754Z,0.27
2023-03-18T03:53:09.490Z,0.07
2023-03-18T03:55:36.539Z,0.09
2023-03-18T03:58:03.275Z,0.08
2023-03-18T04:00:30.422Z,0.09
2023-03-18T04:02:57.279Z,0.22
2023-03-18T04:05:24.701Z,0.32
2023-03-18T04:07:52.461Z,0.31
2023-03-18T04:10:20.918Z,0.36
2023-03-18T04:12:48.178Z,0.46
2023-03-18T04:15:16.797Z,0.41
2023-03-18T04:17:43.506Z,0.49
2023-03-18T04:20:10.891Z,0.43
2023-03-18T04:22:37.578Z,0.36
2023-03-18T04:25:05.200Z,0.69
2023-03-18T04:27:32.732Z,0.66
2023-03-18T04:29:59.531Z,0.76
2023-03-18T04:32:26.297Z,0.67
2023-03-18T04:34:52.990Z,0.30
2023-03-18T04:37:19.593Z,0.26
2023-03-18T04:39:48.025Z,0.36
2023-03-18T04:42:14.740Z,0.38
2023-03-18T04:44:41.480Z,0.49
2023-03-18T04:47:08.248Z,0.45
2023-03-18T04:49:35.163Z,0.30
2023-03-18T04:52:01.809Z,0.31
2023-03-18T04:54:28.394Z,0.34
2023-03-18T04:56:55.160Z,0.49
2023-03-18T04:59:21.809Z,0.50
2023-03-18T05:01:48.409Z,0.37
2023-03-18T05:04:15.210Z,0.31
2023-03-18T05:06:41.978Z,0.29
2023-03-18T05:09:08.861Z,0.36
2023-03-18T05:11:36.112Z,0.29
2023-03-18T05:14:02.789Z,0.24
2023-03-18T05:16:29.446Z,0.39
2023-03-18T05:18:56.554Z,0.49
2023-03-18T05:21:23.297Z,0.28
2023-03-18T05:23:49.933Z,0.42
2023-03-18T05:26:16.614Z,0.29
2023-03-18T05:28:43.229Z,-0.06
2023-03-18T05:31:10.143Z,-0.08
2023-03-18T05:33:36.824Z,-0.25
2023-03-18T05:36:03.807Z,-0.37
2023-03-18T05:38:30.432Z,-0.47
2023-03-18T05:40:57.164Z,-0.34
2023-03-18T05:43:23.804Z,-0.26
2023-03-18T05:45:50.775Z,-0.31
2023-03-18T05:48:17.565Z,-0.30
2023-03-18T05:50:44.723Z,-0.27
2023-03-18T05:53:12.326Z,-0.36
2023-03-18T05:55:39.994Z,-0.46
2023-03-18T05:58:07.351Z,-0.41
2023-03-18T06:00:34.723Z,-0.37
2023-03-18T06:03:02.292Z,-0.09
2023-03-18T06:05:30.061Z,0.13
2023-03-18T06:07:59.795Z,0.06
2023-03-18T06:10:26.673Z,0.29
2023-03-18T06:12:54.077Z,0.40
2023-03-18T06:15:21.205Z,0.37
2023-03-18T06:17:48.392Z,0.34
2023-03-18T06:20:15.760Z,0.41
2023-03-18T06:22:42.637Z,0.47
2023-03-18T06:25:09.854Z,0.83
2023-03-18T06:27:36.528Z,0.78
2023-03-18T06:30:04.269Z,0.80
2023-03-18T06:32:31.725Z,1.41
2023-03-18T06:34:58.482Z,1.41
2023-03-18T06:37:25.130Z,1.66
2023-03-18T06:39:51.972Z,1.78
2023-03-18T06:42:18.607Z,2.44
2023-03-18T06:44:45.270Z,2.39
2023-03-18T06:47:12.108Z,2.37
2023-03-18T06:49:38.753Z,2.48
2023-03-18T06:52:05.494Z,2.42
2023-03-18T06:54:32.272Z,2.59
2023-03-18T06:56:58.949Z,2.46
2023-03-18T06:59:28.500Z,2.45
2023-03-18T07:01:55.240Z,2.61
2023-03-18T07:04:22.014Z,2.82
2023-03-18T07:06:48.755Z,2.75
2023-03-18T07:09:15.622Z,2.90
2023-03-18T07:11:42.947Z,2.65
2023-03-18T07:14:09.796Z,2.83
2023-03-18T07:16:36.464Z,3.02
2023-03-18T07:19:03.221Z,3.05
2023-03-18T07:21:29.966Z,3.46
2023-03-18T07:23:56.686Z,3.64
2023-03-18T07:26:23.414Z,3.21
2023-03-18T07:28:50.075Z,3.37
2023-03-18T07:31:16.833Z,3.40
2023-03-18T07:33:43.597Z,3.69
2023-03-18T07:36:10.376Z,4.07
2023-03-18T07:38:37.052Z,3.91
2023-03-18T07:41:06.917Z,4.31
2023-03-18T07:43:33.727Z,4.42
2023-03-18T07:46:00.332Z,4.46
2023-03-18T07:48:27.125Z,4.64
2023-03-18T07:50:53.782Z,4.81
2023-03-18T07:53:20.488Z,4.72
2023-03-18T07:55:47.181Z,4.99
2023-03-18T07:58:13.969Z,5.00
2023-03-18T08:00:41.154Z,5.25
2023-03-18T08:03:07.777Z,5.52
2023-03-18T08:05:34.761Z,5.74
2023-03-18T08:08:01.579Z,5.64
2023-03-18T08:10:28.265Z,5.64
2023-03-18T08:12:54.953Z,5.79
2023-03-18T08:15:22.416Z,5.85
2023-03-18T08:17:50.188Z,6.03
2023-03-18T08:20:16.970Z,6.30
2023-03-18T08:22:43.602Z,6.24
2023-03-18T08:25:10.252Z,6.23
2023-03-18T08:27:37.057Z,6.45
2023-03-18T08:30:04.246Z,6.56
2023-03-18T08:32:31.076Z,6.42
2023-03-18T08:34:57.837Z,6.69
2023-03-18T08:37:24.578Z,7.15
2023-03-18T08:39:51.218Z,7.23
2023-03-18T08:42:17.870Z,7.27
2023-03-18T08:44:44.497Z,7.36
2023-03-18T08:47:11.265Z,7.66
2023-03-18T08:49:37.975Z,7.87
2023-03-18T08:52:05.217Z,7.86
2023-03-18T08:54:31.826Z,7.99
2023-03-18T08:56:58.484Z,7.53
2023-03-18T08:59:25.223Z,7.66
2023-03-18T09:01:51.856Z,7.92
2023-03-18T09:04:18.661Z,8.20
2023-03-18T09:06:45.300Z,8.41
2023-03-18T09:09:12.016Z,8.28
2023-03-18T09:11:38.919Z,8.33
2023-03-18T09:14:05.520Z,8.60
2023-03-18T09:16:32.452Z,8.56
2023-03-18T09:18:59.183Z,8.54
2023-03-18T09:21:25.876Z,8.74
2023-03-18T09:23:52.545Z,8.75
2023-03-18T09:26:19.380Z,9.10
2023-03-18T09:28:45.997Z,9.30
2023-03-18T09:31:13.066Z,9.59
2023-03-18T09:33:39.770Z,9.63
2023-03-18T09:36:06.760Z,9.49
2023-03-18T09:38:33.447Z,9.34
2023-03-18T09:41:03.166Z,9.32
2023-03-18T09:43:53.578Z,9.32
2023-03-18T09:46:32.317Z,9.51
2023-03-18T09:49:13.021Z,9.68
2023-03-18T09:52:17.075Z,9.63
2023-03-18T09:54:50.052Z,9.94
2023-03-18T09:57:28.812Z,10.26
2023-03-18T10:00:02.114Z,9.79
2023-03-18T10:02:39.838Z,9.81
2023-03-18T10:05:24.544Z,10.31
2023-03-18T10:07:56.819Z,10.69
2023-03-18T10:10:40.849Z,10.57
2023-03-18T10:13:21.536Z,10.60
2023-03-18T10:15:53.556Z,10.58
2023-03-18T10:18:46.692Z,10.70
2023-03-18T10:21:44.822Z,10.82
2023-03-18T10:24:23.279Z,10.99
2023-03-18T10:26:57.481Z,11.05
2023-03-18T10:29:42.108Z,11.19
2023-03-18T10:32:49.172Z,11.23
2023-03-18T10:35:27.102Z,11.02
2023-03-18T10:38:09.915Z,10.69
2023-03-18T10:40:39.507Z,10.88
2023-03-18T10:43:16.680Z,10.89
2023-03-18T10:45:46.267Z,11.46
2023-03-18T10:48:21.041Z,11.74
2023-03-18T10:51:21.481Z,11.52
2023-03-18T10:53:57.151Z,11.80
2023-03-18T10:56:23.970Z,11.63
2023-03-18T10:58:50.711Z,11.54
2023-03-18T11:01:22.716Z,11.50
2023-03-18T11:04:01.437Z,11.76
2023-03-18T11:06:39.882Z,11.99
2023-03-18T11:09:10.098Z,12.14
2023-03-18T11:11:40.868Z,12.20
2023-03-18T11:14:13.944Z,12.30
2023-03-18T11:16:46.394Z,12.36
2023-03-18T11:19:41.069Z,12.26
2023-03-18T11:22:10.811Z,12.41
2023-03-18T11:24:40.732Z,12.60
2023-03-18T11:27:13.717Z,12.54
2023-03-18T11:29:43.393Z,12.19
2023-03-18T11:32:31.477Z,11.86
2023-03-18T11:35:00.955Z,12.44
2023-03-18T11:37:37.371Z,12.48
2023-03-18T11:40:20.189Z,12.62
2023-03-18T11:42:49.666Z,12.72
2023-03-18T11:45:46.887Z,12.75
2023-03-18T11:48:22.211Z,12.93
2023-03-18T11:51:27.482Z,12.76
2023-03-18T11:54:29.037Z,13.12
2023-03-18T11:57:02.479Z,12.96
2023-03-18T11:59:34.893Z,13.06
2023-03-18T12:02:30.728Z,12.87
2023-03-18T12:05:18.880Z,12.98
2023-03-18T12:07:51.299Z,13.05
2023-03-18T12:10:33.277Z,13.26
2023-03-18T12:13:24.502Z,13.17
2023-03-18T12:15:56.801Z,13.30
2023-03-18T12:18:49.120Z,13.21
2023-03-18T12:21:49.886Z,13.15
2023-03-18T12:24:22.481Z,13.41
2023-03-18T12:27:05.811Z,13.43
2023-03-18T12:29:54.043Z,13.51
2023-03-18T12:32:45.399Z,13.72
2023-03-18T12:35:49.465Z,13.58
2023-03-18T12:38:31.047Z,13.40
2023-03-18T12:41:26.675Z,13.30
2023-03-18T12:44:05.912Z,13.61
2023-03-18T12:46:41.336Z,13.67
2023-03-18T12:49:38.803Z,13.50
2023-03-18T12:52:08.849Z,13.62
2023-03-18T12:54:50.553Z,13.54
2023-03-18T12:57:48.339Z,13.81
2023-03-18T13:00:19.294Z,13.79
2023-03-18T13:02:53.021Z,14.16
2023-03-18T13:05:27.175Z,13.75
2023-03-18T13:08:13.121Z,13.66
2023-03-18T13:10:41.551Z,13.62
2023-03-18T13:13:10.475Z,13.76
2023-03-18T13:15:51.672Z,13.82
2023-03-18T13:18:21.219Z,14.16
2023-03-18T13:20:51.461Z,13.89
2023-03-18T13:23:50.404Z,14.27
2023-03-18T13:26:52.120Z,13.70
2023-03-18T13:29:27.751Z,13.79
2023-03-18T13:32:03.374Z,14.01
2023-03-18T13:35:07.214Z,14.33
2023-03-18T13:38:05.664Z,13.74
2023-03-18T13:40:56.866Z,13.46
2023-03-18T13:43:25.597Z,13.15
2023-03-18T13:45:54.093Z,13.32
2023-03-18T13:48:32.829Z,13.21
2023-03-18T13:51:34.709Z,13.43
2023-03-18T13:54:04.155Z,13.72
2023-03-18T13:56:48.738Z,13.91
2023-03-18T13:59:33.436Z,13.94
2023-03-18T14:02:24.762Z,14.11
2023-03-18T14:04:52.346Z,14.38
2023-03-18T14:07:23.076Z,14.30
2023-03-18T14:10:17.317Z,12.87
2023-03-18T14:12:46.476Z,13.62
2023-03-18T14:15:15.988Z,13.81
2023-03-18T14:17:47.907Z,13.88
2023-03-18T14:20:17.255Z,13.84
2023-03-18T14:22:46.101Z,13.78
2023-03-18T14:25:19.099Z,13.73
2023-03-18T14:27:55.041Z,13.78
2023-03-18T14:30:44.372Z,13.14
2023-03-18T14:33:19.842Z,13.33
2023-03-18T14:35:46.487Z,13.57
2023-03-18T14:38:38.107Z,13.48
2023-03-18T14:41:16.620Z,13.20
2023-03-18T14:44:00.914Z,13.23
2023-03-18T14:46:33.790Z,13.45
2023-03-18T14:49:00.661Z,13.71
2023-03-18T14:51:30.162Z,13.92
2023-03-18T14:54:05.391Z,13.51
2023-03-18T14:56:42.568Z,13.43
2023-03-18T14:59:15.475Z,12.84
2023-03-18T15:01:47.083Z,12.96
2023-03-18T15:04:23.649Z,13.31
2023-03-18T15:06:52.110Z,12.70
2023-03-18T15:09:24.032Z,12.92
2023-03-18T15:11:50.945Z,13.16
2023-03-18T15:14:29.910Z,13.26
2023-03-18T15:16:59.872Z,13.67
2023-03-18T15:19:28.809Z,13.22
2023-03-18T15:21:58.468Z,13.14
2023-03-18T15:24:27.040Z,13.50
2023-03-18T15:27:14.712Z,13.64
2023-03-18T15:29:55.760Z,13.52
2023-03-18T15:32:34.194Z,13.11
2023-03-18T15:35:15.873Z,13.02
2023-03-18T15:37:44.664Z,13.13
2023-03-18T15:40:23.425Z,13.02
2023-03-18T15:42:50.157Z,12.81
2023-03-18T15:45:22.225Z,12.55
2023-03-18T15:47:48.956Z,12.44
2023-03-18T15:50:18.486Z,12.86
2023-03-18T15:52:46.967Z,13.25
2023-03-18T15:55:32.217Z,13.52
2023-03-18T15:57:59.775Z,13.67
2023-03-18T16:00:27.003Z,14.00
2023-03-18T16:02:53.764Z,12.82
2023-03-18T16:05:26.036Z,13.38
2023-03-18T16:07:52.944Z,13.58
2023-03-18T16:10:21.598Z,13.29
2023-03-18T16:12:53.997Z,13.55
2023-03-18T16:15:23.227Z,13.45
2023-03-18T16:17:52.025Z,13.50
2023-03-18T16:20:30.342Z,13.83
2023-03-18T16:22:57.099Z,13.58
2023-03-18T16:25:25.025Z,13.24
2023-03-18T16:27:55.388Z,13.09
2023-03-18T16:30:24.624Z,13.18
2023-03-18T16:32:52.971Z,13.11
2023-03-18T16:35:22.414Z,12.44
2023-03-18T16:37:49.234Z,12.64
2023-03-18T16:40:18.949Z,12.29
2023-03-18T16:42:46.560Z,11.97
2023-03-18T16:45:16.636Z,11.88
2023-03-18T16:47:45.102Z,11.99
2023-03-18T16:50:22.977Z,11.99
2023-03-18T16:52:50.721Z,11.96
2023-03-18T16:55:18.969Z,11.65
2023-03-18T16:57:59.183Z,11.69
2023-03-18T17:00:28.453Z,11.72
2023-03-18T17:02:55.065Z,11.54
2023-03-18T17:05:22.116Z,11.67
2023-03-18T17:07:49.792Z,11.54
2023-03-18T17:10:19.845Z,11.28
2023-03-18T17:12:54.485Z,11.22
2023-03-18T17:15:25.686Z,11.24
2023-03-18T17:17:52.674Z,11.18
2023-03-18T17:20:21.488Z,11.11
2023-03-18T17:22:48.596Z,10.99
2023-03-18T17:25:15.756Z,10.89
2023-03-18T17:28:05.840Z,10.75
2023-03-18T17:30:40.144Z,10.81
2023-03-18T17:33:21.775Z,10.77
2023-03-18T17:35:48.412Z,10.69
2023-03-18T17:38:15.720Z,10.63
2023-03-18T17:40:42.903Z,10.68
2023-03-18T17:43:22.420Z,10.51
2023-03-18T17:45:49.092Z,10.21
2023-03-18T17:48:15.821Z,10.02
2023-03-18T17:50:43.507Z,9.91
2023-03-18T17:53:23.880Z,9.89
2023-03-18T17:55:50.784Z,9.77
2023-03-18T17:58:19.602Z,9.70
2023-03-18T18:00:47.191Z,9.59
2023-03-18T18:03:21.148Z,9.48
2023-03-18T18:05:48.005Z,9.47
2023-03-18T18:08:18.550Z,9.60
2023-03-18T18:10:45.589Z,9.42
2023-03-18T18:13:18.433Z,9.43
2023-03-18T18:15:46.532Z,9.36
2023-03-18T18:18:23.474Z,9.35
2023-03-18T18:21:01.680Z,9.55
2023-03-18T18:23:34.268Z,9.32
2023-03-18T18:26:04.276Z,9.25
2023-03-18T18:28:35.991Z,9.19
2023-03-18T18:31:05.258Z,9.08
2023-03-18T18:33:32.773Z,9.14
2023-03-18T18:36:00.263Z,9.17
2023-03-18T18:38:27.591Z,9.01
2023-03-18T18:40:55.797Z,8.97
2023-03-18T18:43:24.391Z,8.90
2023-03-18T18:45:52.883Z,8.86
2023-03-18T18:48:24.945Z,8.64
2023-03-18T18:50:51.617Z,8.68
2023-03-18T18:53:34.054Z,8.65
2023-03-18T18:56:22.138Z,8.37
2023-03-18T18:58:51.023Z,8.32
2023-03-18T19:01:18.573Z,8.33
2023-03-18T19:03:45.869Z,8.30
2023-03-18T19:06:39.104Z,8.22
2023-03-18T19:09:16.239Z,8.23
2023-03-18T19:11:42.879Z,8.26
2023-03-18T19:14:29.231Z,8.11
2023-03-18T19:16:59.526Z,8.28
2023-03-18T19:19:29.313Z,8.30
2023-03-18T19:21:56.107Z,8.11
2023-03-18T19:24:27.470Z,8.07
2023-03-18T19:26:59.398Z,8.18
2023-03-18T19:29:26.660Z,8.13
2023-03-18T19:31:53.297Z,7.99
2023-03-18T19:34:20.942Z,8.02
2023-03-18T19:36:49.582Z,8.12
2023-03-18T19:39:18.526Z,7.93
2023-03-18T19:41:46.505Z,8.04
2023-03-18T19:44:22.072Z,7.75
2023-03-18T19:46:50.288Z,7.63
2023-03-18T19:49:33.250Z,7.65
2023-03-18T19:52:00.390Z,7.81
2023-03-18T19:54:32.818Z,7.50
2023-03-18T19:57:05.369Z,7.63
2023-03-18T19:59:38.595Z,7.60
2023-03-18T20:02:19.531Z,7.41
2023-03-18T20:04:50.018Z,7.26
2023-03-18T20:07:18.554Z,7.21
2023-03-18T20:09:45.724Z,7.07
2023-03-18T20:12:22.066Z,7.06
2023-03-18T20:14:49.098Z,6.95
2023-03-18T20:17:29.551Z,6.96
2023-03-18T20:19:56.472Z,6.97
2023-03-18T20:22:28.025Z,7.01
2023-03-18T20:24:54.730Z,6.99
2023-03-18T20:27:21.875Z,7.23
2023-03-18T20:29:49.199Z,6.91
2023-03-18T20:32:16.016Z,6.84
2023-03-18T20:34:42.814Z,6.82
2023-03-18T20:37:21.333Z,6.97
2023-03-18T20:39:49.448Z,7.18
2023-03-18T20:42:17.185Z,7.21
2023-03-18T20:44:46.895Z,6.88
2023-03-18T20:47:13.871Z,6.81
2023-03-18T20:49:41.197Z,6.86
2023-03-18T20:52:20.014Z,6.72
2023-03-18T20:54:46.640Z,6.77
2023-03-18T20:57:13.263Z,6.64
2023-03-18T20:59:39.891Z,6.64
2023-03-18T21:02:27.482Z,6.68
2023-03-18T21:04:56.337Z,6.51
2023-03-18T21:07:23.051Z,6.53
2023-03-18T21:09:49.703Z,6.57
2023-03-18T21:12:17.482Z,6.52
2023-03-18T21:14:44.452Z,6.35
2023-03-18T21:17:25.472Z,6.38
2023-03-18T21:19:55.028Z,6.34
2023-03-18T21:22:28.120Z,6.28
2023-03-18T21:24:55.256Z,6.22
2023-03-18T21:27:25.334Z,6.14
2023-03-18T21:29:53.441Z,6.17
2023-03-18T21:32:29.614Z,6.10
2023-03-18T21:34:56.466Z,6.06
2023-03-18T21:37:25.186Z,6.12
2023-03-18T21:39:52.598Z,6.04
2023-03-18T21:42:30.408Z,6.10
2023-03-18T21:44:57.027Z,6.02
2023-03-18T21:47:25.684Z,6.18
2023-03-18T21:49:52.385Z,5.74
2023-03-18T21:52:36.528Z,5.95
2023-03-18T21:55:04.734Z,5.81
2023-03-18T21:57:31.360Z,5.75
2023-03-18T21:59:58.131Z,5.73
2023-03-18T22:02:28.792Z,5.59
2023-03-18T22:04:57.802Z,5.74
2023-03-18T22:07:28.319Z,5.69
2023-03-18T22:09:55.727Z,5.65
2023-03-18T22:12:25.441Z,5.61
2023-03-18T22:14:53.197Z,5.70
2023-03-18T22:17:19.819Z,5.90
2023-03-18T22:19:46.453Z,5.75
2023-03-18T22:22:15.754Z,5.63
2023-03-18T22:24:42.759Z,5.47
2023-03-18T22:27:29.669Z,5.45
2023-03-18T22:29:59.155Z,5.36
2023-03-18T22:32:35.704Z,5.30
2023-03-18T22:35:04.393Z,5.28
2023-03-18T22:37:31.133Z,5.39
2023-03-18T22:40:00.453Z,5.24
2023-03-18T22:42:27.752Z,5.27
2023-03-18T22:44:54.496Z,5.06
2023-03-18T22:47:23.735Z,4.99
2023-03-18T22:49:51.221Z,4.86
2023-03-18T22:52:24.971Z,4.77
2023-03-18T22:54:55.966Z,4.73
2023-03-18T22:57:24.487Z,4.65
2023-03-18T22:59:51.105Z,4.45
2023-03-18T23:02:21.911Z,4.57
2023-03-18T23:04:49.685Z,4.48
2023-03-18T23:07:31.306Z,4.49
2023-03-18T23:10:00.392Z,4.49
2023-03-18T23:12:29.070Z,4.38
2023-03-18T23:14:56.534Z,4.44
2023-03-18T23:17:26.554Z,4.34
2023-03-18T23:19:54.638Z,4.15
2023-03-18T23:22:23.288Z,4.27
2023-03-18T23:24:49.952Z,4.35
2023-03-18T23:27:16.902Z,4.30
2023-03-18T23:29:43.543Z,4.23
2023-03-18T23:32:10.734Z,4.24
2023-03-18T23:34:37.452Z,4.06
2023-03-18T23:37:04.276Z,4.11
2023-03-18T23:39:30.973Z,4.01
2023-03-18T23:41:57.652Z,3.90
2023-03-18T23:44:24.295Z,3.84
2023-03-18T23:46:51.692Z,3.79
2023-03-18T23:49:18.478Z,3.87
2023-03-18T23:51:45.332Z,3.90
2023-03-18T23:54:12.031Z,4.05
2023-03-18T23:56:38.723Z,3.96
2023-03-18T23:59:05.657Z,3.88
